Impacts METAR Board
IDs:

KFLL - Ft Lauderdale-Hollyw, FL, US

Updated at: 2200 UTC 30 Jun 2022
Potential Impact None Slight Moderate High
Time 30/10Z 30/11Z 30/12Z 30/13Z 30/14Z 30/15Z 30/16Z 30/17Z 30/18Z 30/19Z 30/20Z 30/21Z 30/22Z
Temp81 81 81 82 84 90 90 90 90 88 89 89 88
Dewpt75 75 75 75 75 77 75 75 75 75 78 77 76
Altim30.10 30.10 30.10 30.11 30.12 30.12 30.12 30.11 30.12 30.10 30.09 30.10 30.09
VIS10 10 10 10 10 10 10 10 10 10 10 10 10
CIG-- -- -- -- -- -- -- 40 250 250 250 75 250
CoverSCTSCTSCTSCTSCTSCTSCTBKNBKNBKNBKNBKNBKN
FltCatVFRVFRVFRVFRVFRVFRVFRVFRVFRVFRVFRVFRVFR
WX--------------------------
WDir00170130140140110150150130140130140
WSpd0 0 5 8 10 12 13 11 13 14 14 13 12
WGst-- -- -- -- -- -- -- 18 -- -- -- -- --
Raw hourly METARs
KFLL 300953Z 00000KT 10SM SCT022 27/24 A3010 RMK AO2 SLP192 T02720239 $
KFLL 301053Z 00000KT 10SM SCT022 SCT250 27/24 A3010 RMK AO2 SLP193 T02720239 $
KFLL 301153Z 17005KT 10SM FEW023 SCT250 27/24 A3010 RMK AO2 SLP193 T02720239 10278 20272 51002 $
KFLL 301253Z 13008KT 10SM SCT025 SCT250 28/24 A3011 RMK AO2 SLP196 T02780239 $
KFLL 301353Z 14010KT 10SM SCT030 SCT250 29/24 A3012 RMK AO2 SLP200 T02890239 $
KFLL 301453Z COR 14012KT 10SM SCT035 SCT250 32/24 A3012 RMK AO2 SLP199 CB DSNT S AND NW MOV N T03000250 50006 $
KFLL 301553Z 11013KT 10SM SCT028 SCT035 SCT250 32/24 A3012 RMK AO2 LTG DSNT N SLP198 CB DSNT S AND W AND NW MOV N T03220239 $
KFLL 301653Z 15011G18KT 10SM SCT030 BKN040 BKN250 32/24 A3011 RMK AO2 LTG DSNT SE AND W AND NW SLP196 CB DSNT SW-NW MOV N T03220239 $
KFLL 301753Z 15013KT 10SM SCT020 SCT055 BKN250 32/24 A3012
KFLL 301853Z COR 13014KT 10SM SCT028 SCT037 BKN250 31/24 A3010 RMK CB DSNT W AND NW MOV N $
KFLL 301953Z COR 14014KT 10SM FEW030 SCT080 BKN250 32/25 A3009 RMK CB DSNT SW MOV NW TCU DSNT SE MDT CU DSNT W AND NW T03180254
KFLL 302053Z 13013KT 10SM SCT030 BKN075 BKN250 32/25 A3010 RMK CB DSNT SW-NW MOV NW T03150252
KFLL 302153Z 14012KT 10SM FEW030 SCT075 SCT150 BKN250 31/24 A3009 RMK CB DSNT ALQDS MOV NW T03120244



Page loaded:  22:59 UTC  |   03:59 PM Pacific  |   04:59 PM Mountain  |   05:59 PM Central  |   06:59 PM Eastern

 

ADVISORIES

FORECASTS

FORECASTS

OBSERVATIONS

USER TOOLS

ABOUT US